TimeEDT,TemperatureF,Dew PointF,Humidity,Sea Level PressureIn,VisibilityMPH,Wind Direction,Wind SpeedMPH,Gust SpeedMPH,PrecipitationIn,Events,Conditions,WindDirDegrees,DateUTC
12:53 AM,81.0,66.9,62,30.05,10.0,ENE,15.0,25.3,N/A,,Partly Cloudy,70,2012-10-14 04:53:00
1:53 AM,81.0,68.0,65,30.04,10.0,East,17.3,26.5,N/A,,Scattered Clouds,80,2012-10-14 05:53:00
2:53 AM,81.0,69.1,67,30.02,10.0,ENE,12.7,21.9,N/A,,Scattered Clouds,70,2012-10-14 06:53:00
3:53 AM,80.1,70.0,71,30.01,10.0,ENE,11.5,23.0,0.00,Rain,Light Rain,70,2012-10-14 07:53:00
4:53 AM,81.0,70.0,69,30.00,10.0,ENE,15.0,20.7,0.00,,Mostly Cloudy,70,2012-10-14 08:53:00
5:53 AM,81.0,68.0,65,30.00,10.0,ENE,16.1,27.6,N/A,,Mostly Cloudy,70,2012-10-14 09:53:00
6:53 AM,80.1,68.0,67,30.01,10.0,ENE,18.4,28.8,N/A,,Partly Cloudy,70,2012-10-14 10:53:00
7:53 AM,81.0,70.0,69,30.02,10.0,ENE,17.3,23.0,N/A,,Mostly Cloudy,70,2012-10-14 11:53:00
8:08 AM,80.6,69.8,70,30.03,10.0,ENE,11.5,23.0,N/A,,Mostly Cloudy,70,2012-10-14 12:08:00
8:53 AM,82.0,70.0,67,30.04,10.0,ENE,15.0,-,N/A,,Mostly Cloudy,60,2012-10-14 12:53:00
9:53 AM,82.9,70.0,65,30.04,10.0,ENE,18.4,24.2,N/A,,Mostly Cloudy,70,2012-10-14 13:53:00
10:53 AM,82.9,71.1,67,30.04,10.0,ENE,16.1,-,N/A,,Overcast,70,2012-10-14 14:53:00
11:53 AM,84.0,72.0,67,30.03,10.0,ENE,19.6,27.6,N/A,,Overcast,60,2012-10-14 15:53:00
12:53 PM,84.9,72.0,65,30.01,10.0,ENE,17.3,25.3,N/A,,Mostly Cloudy,70,2012-10-14 16:53:00
1:53 PM,84.9,73.0,67,29.99,10.0,ENE,17.3,25.3,N/A,,Mostly Cloudy,60,2012-10-14 17:53:00
2:53 PM,84.9,73.0,67,29.97,10.0,NE,16.1,26.5,N/A,,Mostly Cloudy,40,2012-10-14 18:53:00
3:53 PM,84.0,73.0,69,29.96,10.0,ENE,20.7,25.3,0.00,,Mostly Cloudy,60,2012-10-14 19:53:00
4:36 PM,84.2,73.4,70,29.95,10.0,ENE,17.3,25.3,0.00,,Mostly Cloudy,70,2012-10-14 20:36:00
4:53 PM,84.9,73.0,67,29.95,10.0,NE,17.3,25.3,0.00,,Mostly Cloudy,50,2012-10-14 20:53:00
5:53 PM,84.0,73.9,72,29.95,10.0,ENE,17.3,26.5,N/A,,Mostly Cloudy,70,2012-10-14 21:53:00
6:53 PM,82.0,73.9,76,29.95,10.0,ENE,15.0,20.7,N/A,,Mostly Cloudy,70,2012-10-14 22:53:00
7:53 PM,82.0,73.0,74,29.95,10.0,ENE,13.8,-,N/A,,Mostly Cloudy,60,2012-10-14 23:53:00
8:53 PM,82.0,73.0,74,29.96,10.0,ENE,11.5,-,N/A,,Mostly Cloudy,70,2012-10-15 00:53:00
9:53 PM,82.0,73.9,76,29.96,10.0,East,12.7,19.6,N/A,,Mostly Cloudy,80,2012-10-15 01:53:00
10:29 PM,82.4,73.4,74,29.96,10.0,East,10.4,-,N/A,,Mostly Cloudy,80,2012-10-15 02:29:00
10:53 PM,82.0,73.0,74,29.96,10.0,East,12.7,-,N/A,,Mostly Cloudy,80,2012-10-15 02:53:00
11:20 PM,80.6,73.4,79,29.96,10.0,East,10.4,-,0.00,Rain,Light Rain,80,2012-10-15 03:20:00
11:53 PM,81.0,73.9,79,29.95,10.0,East,10.4,-,0.00,,Mostly Cloudy,90,2012-10-15 03:53:00